Time;durP1;ratioP1;P1;durP2;ratioP2;P2;SDS_P1;SDS_P2;PMS_P1;PMS_P2;Temp;Humidity;BMP_temperature;BMP_pressure;BME280_temperature;BME280_humidity;BME280_pressure;Samples;Min_cycle;Max_cycle;Signal;HPM_P1;HPM_P2
2022/10/14 00:00:42;;;;;;;20.57;14.67;;;;;;;13.42;86.68;100806.09;5012102;28;20218;-82
2022/10/14 00:03:09;;;;;;;20.77;14.27;;;;;;;13.43;86.22;100801.59;5015730;28;20210;-83
2022/10/14 00:05:40;;;;;;;18.03;12.97;;;;;;;13.43;86.58;100796.22;5013332;28;20214;-83
2022/10/14 00:08:08;;;;;;;25.10;13.87;;;;;;;13.42;86.81;100803.41;5007623;28;20591;-83
2022/10/14 00:10:38;;;;;;;21.30;14.37;;;;;;;13.43;86.45;100799.75;5016086;28;20618;-82
2022/10/14 00:13:05;;;;;;;18.27;14.00;;;;;;;13.42;86.96;100798.06;5012019;28;20202;-83
2022/10/14 00:15:31;;;;;;;23.70;14.20;;;;;;;13.42;86.91;100799.88;5020840;28;20644;-83
2022/10/14 00:17:58;;;;;;;18.97;13.20;;;;;;;13.42;86.94;100792.72;5008326;28;20211;-82
2022/10/14 00:20:24;;;;;;;22.63;13.77;;;;;;;13.43;87.17;100794.41;5009066;28;20207;-83
2022/10/14 00:22:51;;;;;;;18.80;13.87;;;;;;;13.43;86.76;100799.75;5007879;28;20207;-83
2022/10/14 00:25:17;;;;;;;21.10;14.37;;;;;;;13.44;86.99;100793.41;5021008;28;20198;-83
2022/10/14 00:27:45;;;;;;;19.43;14.57;;;;;;;13.44;87.07;100789.88;5015700;28;20254;-83
2022/10/14 00:30:12;;;;;;;20.27;15.27;;;;;;;13.43;87.13;100790.88;5005810;28;20207;-83
2022/10/14 00:32:39;;;;;;;22.13;13.70;;;;;;;13.44;87.16;100789.88;5012957;28;20837;-83
2022/10/14 00:35:06;;;;;;;22.60;16.00;;;;;;;13.43;87.42;100789.06;5010775;28;20274;-83
2022/10/14 00:37:32;;;;;;;21.07;15.27;;;;;;;13.42;86.88;100784.69;5014466;28;20210;-82
2022/10/14 00:39:59;;;;;;;20.77;14.53;;;;;;;13.43;87.48;100782.84;5013111;28;20231;-82
2022/10/14 00:42:25;;;;;;;20.67;15.07;;;;;;;13.42;87.41;100783.81;5010656;28;20214;-83
2022/10/14 00:45:05;;;;;;;23.03;15.80;;;;;;;13.41;87.62;100784.78;5018075;28;20206;-84
2022/10/14 00:47:32;;;;;;;23.03;15.60;;;;;;;13.40;87.44;100788.44;5012015;28;20602;-83
2022/10/14 00:49:59;;;;;;;22.43;15.17;;;;;;;13.41;87.88;100787.47;5008839;28;20226;-83
2022/10/14 00:52:26;;;;;;;23.00;15.60;;;;;;;13.40;87.88;100783.94;5014505;28;20214;-83
2022/10/14 00:54:56;;;;;;;23.30;15.73;;;;;;;13.40;87.92;100775.91;5007666;28;20217;-83
2022/10/14 00:57:24;;;;;;;22.27;16.53;;;;;;;13.40;88.07;100785.75;5003637;28;20689;-82
2022/10/14 00:59:52;;;;;;;22.97;15.50;;;;;;;13.40;87.78;100781.25;5011858;28;20242;-83
2022/10/14 01:02:20;;;;;;;22.30;15.93;;;;;;;13.38;88.15;100780.50;5001353;28;20779;-82
2022/10/14 01:04:46;;;;;;;21.87;15.60;;;;;;;13.39;88.39;100786.72;5010645;28;20563;-83
2022/10/14 01:07:26;;;;;;;23.73;15.73;;;;;;;13.38;88.51;100774.31;5009763;28;20236;-82
2022/10/14 01:10:01;;;;;;;22.07;16.27;;;;;;;13.38;88.70;100779.66;5004417;28;20218;-83
2022/10/14 01:12:37;;;;;;;20.83;14.87;;;;;;;13.35;88.54;100769.16;5006969;28;20214;-83
2022/10/14 01:15:14;;;;;;;21.00;14.67;;;;;;;13.34;88.83;100773.66;5004133;28;20210;-84
2022/10/14 01:17:52;;;;;;;21.60;14.73;;;;;;;13.33;88.92;100776.44;5007945;28;20209;-83
2022/10/14 01:20:48;;;;;;;21.23;15.20;;;;;;;13.32;89.23;100769.38;5001972;28;20720;-83
2022/10/14 01:23:42;;;;;;;24.50;15.63;;;;;;;13.31;89.29;100767.69;5002199;28;20214;-83
2022/10/14 01:26:24;;;;;;;22.03;15.73;;;;;;;13.30;89.17;100771.31;5007085;28;20207;-83
2022/10/14 01:29:03;;;;;;;22.53;14.70;;;;;;;13.29;89.95;100762.44;5011801;28;20222;-83
2022/10/14 01:31:34;;;;;;;19.60;14.57;;;;;;;13.29;89.97;100766.94;5010932;28;20202;-83
2022/10/14 01:34:04;;;;;;;19.83;14.43;;;;;;;13.27;90.52;100761.69;5014817;28;20254;-83
2022/10/14 01:36:36;;;;;;;20.37;14.00;;;;;;;13.26;90.35;100765.34;5005857;28;20262;-82
2022/10/14 01:39:10;;;;;;;20.40;14.90;;;;;;;13.25;90.67;100757.44;5016717;28;20229;-83
2022/10/14 01:41:41;;;;;;;22.70;14.17;;;;;;;13.25;90.60;100760.97;5013633;28;20251;-83
2022/10/14 01:44:10;;;;;;;21.23;14.33;;;;;;;13.24;90.83;100764.63;5021015;28;20708;-82
2022/10/14 01:46:41;;;;;;;20.23;14.80;;;;;;;13.24;91.36;100755.75;5006513;28;20594;-82
2022/10/14 01:49:11;;;;;;;24.73;15.57;;;;;;;13.23;91.37;100754.03;5019997;28;20242;-83
2022/10/14 01:51:43;;;;;;;22.10;14.67;;;;;;;13.22;91.21;100758.53;5015740;28;20834;-83
2022/10/14 01:54:16;;;;;;;20.30;14.37;;;;;;;13.22;91.53;100752.31;5021058;28;20720;-83
2022/10/14 01:56:48;;;;;;;22.43;14.97;;;;;;;13.22;91.76;100749.63;5008780;28;20705;-83
2022/10/14 01:59:17;;;;;;;22.57;15.30;;;;;;;13.22;91.59;100752.31;5011709;28;20242;-83
2022/10/14 02:01:45;;;;;;;20.30;15.83;;;;;;;13.22;92.02;100753.16;5008384;28;21364;-82
2022/10/14 02:04:17;;;;;;;17.37;13.60;;;;;;;13.23;91.82;100754.03;5007442;28;20213;-83
2022/10/14 02:06:50;;;;;;;20.87;14.83;;;;;;;13.22;92.28;100749.63;5009094;28;20562;-83
2022/10/14 02:09:23;;;;;;;21.13;15.80;;;;;;;13.24;92.05;100750.38;5009421;28;20713;-83
2022/10/14 02:12:03;;;;;;;21.43;15.17;;;;;;;13.23;92.17;100752.22;5016082;28;20688;-83
2022/10/14 02:14:39;;;;;;;20.93;15.17;;;;;;;13.23;92.34;100748.69;5008647;28;20214;-83
2022/10/14 02:17:13;;;;;;;24.13;15.17;;;;;;;13.24;92.29;100739.69;5010983;28;20312;-83
2022/10/14 02:19:48;;;;;;;19.43;14.50;;;;;;;13.23;92.48;100744.19;5010514;28;20237;-83
2022/10/14 02:22:24;;;;;;;21.77;14.87;;;;;;;13.23;92.73;100746.84;5011745;28;20670;-83
2022/10/14 02:24:54;;;;;;;21.83;15.70;;;;;;;13.24;92.34;100745.03;5006283;28;20581;-83
2022/10/14 02:27:25;;;;;;;21.63;15.97;;;;;;;13.23;92.83;100738.84;5008600;28;20199;-83
2022/10/14 02:29:53;;;;;;;22.03;15.07;;;;;;;13.23;92.94;100741.50;5009721;28;20222;-83
2022/10/14 02:32:24;;;;;;;22.77;16.37;;;;;;;13.25;92.60;100746.75;5011630;28;20214;-83
2022/10/14 02:34:54;;;;;;;23.30;15.47;;;;;;;13.24;92.76;100737.03;5008064;28;20214;-83
2022/10/14 02:37:23;;;;;;;20.50;15.27;;;;;;;13.24;93.27;100739.69;5008875;28;20215;-83
2022/10/14 02:39:55;;;;;;;19.90;16.23;;;;;;;13.24;93.37;100743.22;5009553;28;20281;-83
2022/10/14 02:42:22;;;;;;;21.03;16.23;;;;;;;13.22;93.53;100734.44;5007128;28;20206;-84
2022/10/14 02:44:53;;;;;;;21.77;17.40;;;;;;;13.24;93.15;100734.34;5009698;28;20203;-83
2022/10/14 02:47:21;;;;;;;22.77;15.57;;;;;;;13.23;93.59;100738.84;5007831;28;20199;-83
2022/10/14 02:49:47;;;;;;;19.67;15.63;;;;;;;13.24;93.61;100729.00;5011105;28;20254;-83
2022/10/14 02:52:13;;;;;;;22.90;16.53;;;;;;;13.23;93.49;100727.28;5009736;28;20226;-83
2022/10/14 02:54:40;;;;;;;24.57;16.27;;;;;;;13.23;93.83;100724.59;4999109;28;20585;-83
2022/10/14 02:57:06;;;;;;;23.73;16.70;;;;;;;13.24;93.41;100723.66;5005520;28;20650;-83
2022/10/14 02:59:33;;;;;;;22.07;15.87;;;;;;;13.23;93.70;100727.28;5015355;28;20245;-83
2022/10/14 03:01:59;;;;;;;20.73;15.93;;;;;;;13.24;93.43;100720.97;5005314;28;20207;-83
2022/10/14 03:04:27;;;;;;;21.47;16.30;;;;;;;13.24;93.72;100721.81;5001888;28;20207;-83
2022/10/14 03:06:54;;;;;;;22.43;16.03;;;;;;;13.24;93.96;100718.28;5007079;28;20195;-83
2022/10/14 03:09:20;;;;;;;20.83;15.90;;;;;;;13.24;93.79;100713.81;5002926;28;20227;-83
2022/10/14 03:11:47;;;;;;;20.40;15.63;;;;;;;13.25;93.70;100722.69;5012281;28;20207;-82
2022/10/14 03:14:13;;;;;;;23.87;15.60;;;;;;;13.24;93.64;100716.47;5006437;28;20316;-82
2022/10/14 03:16:39;;;;;;;22.80;15.90;;;;;;;13.23;93.89;100716.59;5009313;28;20238;-82
2022/10/14 03:19:06;;;;;;;22.83;15.77;;;;;;;13.24;94.13;100713.81;5009640;28;20222;-83
2022/10/14 03:21:34;;;;;;;21.30;15.13;;;;;;;13.25;93.59;100720.84;4999417;28;20573;-83
2022/10/14 03:24:00;;;;;;;21.37;15.83;;;;;;;13.25;93.80;100720.84;5003033;28;20232;-83
2022/10/14 03:26:27;;;;;;;26.33;16.70;;;;;;;13.25;93.58;100715.50;5005623;28;20231;-83
2022/10/14 03:28:53;;;;;;;18.20;15.17;;;;;;;13.25;93.44;100718.19;5006122;28;20701;-83
2022/10/14 03:31:20;;;;;;;22.70;16.00;;;;;;;13.26;93.91;100717.19;5002566;28;20990;-83
2022/10/14 03:33:46;;;;;;;20.53;14.20;;;;;;;13.27;93.49;100718.91;5002472;28;20203;-83
2022/10/14 03:36:13;;;;;;;19.60;15.33;;;;;;;13.27;93.83;100718.91;5003877;28;20895;-83
2022/10/14 03:38:41;;;;;;;21.10;15.53;;;;;;;13.28;93.64;100717.06;5007505;28;20240;-83
2022/10/14 03:41:07;;;;;;;21.57;15.33;;;;;;;13.28;93.61;100717.94;5010231;28;20697;-83
2022/10/14 03:43:34;;;;;;;18.50;14.57;;;;;;;13.27;93.69;100708.19;5012332;28;20210;-83
2022/10/14 03:46:00;;;;;;;20.73;14.77;;;;;;;13.28;93.85;100711.72;5010938;28;20686;-83
2022/10/14 03:48:26;;;;;;;20.07;14.33;;;;;;;13.28;93.31;100709.06;5020352;28;20234;-83
2022/10/14 03:50:53;;;;;;;20.97;15.17;;;;;;;13.28;93.72;100707.22;5010116;28;20200;-84
2022/10/14 03:53:19;;;;;;;22.83;16.40;;;;;;;13.28;93.55;100706.38;5015975;28;20214;-83
2022/10/14 03:55:47;;;;;;;20.90;15.90;;;;;;;13.28;93.33;100709.91;5011992;28;20199;-83
2022/10/14 03:58:14;;;;;;;18.37;14.80;;;;;;;13.28;93.86;100706.38;5008555;28;20257;-84
2022/10/14 04:00:40;;;;;;;17.20;14.33;;;;;;;13.28;93.71;100703.72;5015191;28;20245;-83
2022/10/14 04:03:07;;;;;;;18.50;13.53;;;;;;;13.27;93.72;100692.16;5008693;28;20199;-83
2022/10/14 04:05:33;;;;;;;19.87;13.97;;;;;;;13.27;93.77;100704.66;5012842;28;20215;-84
2022/10/14 04:08:00;;;;;;;21.20;14.80;;;;;;;13.26;93.74;100700.28;5002074;28;20649;-83
2022/10/14 04:10:27;;;;;;;20.73;15.30;;;;;;;13.26;93.69;100694.94;4998932;28;20671;-83
2022/10/14 04:12:55;;;;;;;19.77;14.57;;;;;;;13.25;93.25;100695.94;5005072;28;20207;-83
2022/10/14 04:15:22;;;;;;;25.83;15.50;;;;;;;13.24;93.76;100679.03;5002420;28;20219;-84
2022/10/14 04:17:49;;;;;;;17.67;14.53;;;;;;;13.24;93.59;100692.41;5003579;28;20721;-84
2022/10/14 04:20:16;;;;;;;21.53;15.03;;;;;;;13.23;93.92;100698.72;5001393;28;20573;-84
2022/10/14 04:22:42;;;;;;;19.50;15.07;;;;;;;13.23;94.03;100689.84;5002560;28;20199;-83
2022/10/14 04:25:09;;;;;;;19.73;14.00;;;;;;;13.23;93.67;100695.19;5004061;28;20929;-83
2022/10/14 04:27:36;;;;;;;20.80;15.13;;;;;;;13.22;93.65;100697.00;5003697;28;20230;-82
2022/10/14 04:30:05;;;;;;;21.93;14.73;;;;;;;13.22;93.52;100690.81;5006334;28;20233;-83
2022/10/14 04:32:31;;;;;;;20.53;14.80;;;;;;;13.22;94.03;100693.47;5003129;28;20211;-83
2022/10/14 04:34:58;;;;;;;17.10;13.87;;;;;;;13.22;93.53;100696.16;5002773;28;20207;-82
2022/10/14 04:37:24;;;;;;;17.27;13.00;;;;;;;13.21;94.07;100692.63;5004047;28;20234;-83
2022/10/14 04:39:51;;;;;;;17.30;13.57;;;;;;;13.20;94.05;100691.78;5009266;28;20223;-83
2022/10/14 04:42:17;;;;;;;20.47;14.87;;;;;;;13.22;93.78;100690.81;5006249;28;20234;-82
2022/10/14 04:44:44;;;;;;;19.20;13.77;;;;;;;13.22;94.07;100696.16;5013018;28;20209;-83
2022/10/14 04:47:11;;;;;;;17.60;13.50;;;;;;;13.22;94.02;100699.69;5006445;28;20626;-83
2022/10/14 04:49:38;;;;;;;19.73;13.37;;;;;;;13.22;93.95;100706.84;5005454;28;20583;-84
2022/10/14 04:52:04;;;;;;;19.10;14.50;;;;;;;13.22;93.94;100705.03;5008287;28;21153;-83
2022/10/14 04:54:31;;;;;;;18.07;13.70;;;;;;;13.23;94.10;100711.22;5002796;28;20633;-83
2022/10/14 04:56:57;;;;;;;19.80;14.07;;;;;;;13.23;93.66;100705.88;5004024;28;20226;-83
2022/10/14 04:59:24;;;;;;;18.77;14.00;;;;;;;13.23;93.80;100703.22;5002101;28;20239;-84
2022/10/14 05:01:50;;;;;;;19.80;15.90;;;;;;;13.23;93.85;100700.53;5011445;28;20212;-84
2022/10/14 05:04:18;;;;;;;23.73;15.50;;;;;;;13.23;93.98;100692.50;5018588;28;20206;-83
2022/10/14 05:06:44;;;;;;;21.70;16.17;;;;;;;13.23;93.78;100692.50;5007009;28;20195;-83
2022/10/14 05:09:11;;;;;;;22.50;16.97;;;;;;;13.23;93.99;100679.13;5015844;28;20234;-83
2022/10/14 05:11:37;;;;;;;23.70;16.53;;;;;;;13.23;93.98;100679.13;5007026;28;20709;-84
2022/10/14 05:14:04;;;;;;;23.67;15.73;;;;;;;13.22;93.96;100677.44;5014829;28;20207;-83
2022/10/14 05:16:30;;;;;;;23.70;17.13;;;;;;;13.22;93.94;100670.25;5015408;28;20210;-83
2022/10/14 05:18:57;;;;;;;26.83;16.73;;;;;;;13.20;93.62;100659.69;5013181;28;20230;-83
2022/10/14 05:21:25;;;;;;;25.70;17.63;;;;;;;13.19;93.96;100660.66;5020060;28;20654;-83
2022/10/14 05:23:51;;;;;;;24.50;16.90;;;;;;;13.17;93.79;100657.22;5009017;28;20206;-83
2022/10/14 05:26:18;;;;;;;26.57;18.03;;;;;;;13.15;93.77;100663.66;5017683;28;20564;-83
2022/10/14 05:28:44;;;;;;;25.30;17.57;;;;;;;13.12;93.52;100664.69;5010413;28;20235;-84
2022/10/14 05:31:11;;;;;;;25.00;17.60;;;;;;;13.08;93.42;100668.56;5012267;28;20716;-85
2022/10/14 05:33:37;;;;;;;27.23;17.37;;;;;;;13.05;93.27;100666.13;5009789;28;20214;-85
2022/10/14 05:36:04;;;;;;;22.90;18.13;;;;;;;13.02;93.08;100674.38;5012944;28;20199;-84
2022/10/14 05:38:33;;;;;;;26.00;16.93;;;;;;;12.99;93.34;100679.94;5016105;28;20586;-84
2022/10/14 05:40:59;;;;;;;24.13;17.07;;;;;;;12.97;93.36;100683.69;5011797;28;20210;-84
2022/10/14 05:43:26;;;;;;;26.03;17.20;;;;;;;12.96;93.18;100674.81;5012148;28;20211;-84
2022/10/14 05:45:53;;;;;;;26.87;18.13;;;;;;;12.92;93.04;100678.66;5018447;28;20198;-85
2022/10/14 05:48:19;;;;;;;25.67;17.57;;;;;;;12.91;93.12;100673.41;5014143;28;20223;-84
2022/10/14 05:50:46;;;;;;;25.90;17.27;;;;;;;12.88;93.31;100679.00;5014702;28;20214;-84
2022/10/14 05:53:12;;;;;;;25.80;18.33;;;;;;;12.86;93.07;100679.13;5024791;28;20198;-84
2022/10/14 05:55:40;;;;;;;29.30;18.03;;;;;;;12.83;93.61;100672.19;5018489;28;20206;-84
2022/10/14 05:58:07;;;;;;;29.47;18.00;;;;;;;12.82;93.50;100678.47;5021857;28;20230;-84
2022/10/14 06:00:34;;;;;;;26.23;18.90;;;;;;;12.82;93.63;100674.97;5019207;28;20654;-85
2022/10/14 06:03:00;;;;;;;31.53;19.60;;;;;;;12.82;93.89;100675.81;5020929;28;20561;-84
2022/10/14 06:05:27;;;;;;;39.87;25.23;;;;;;;12.83;93.71;100685.53;5012048;28;20680;-85
2022/10/14 06:07:54;;;;;;;40.33;24.93;;;;;;;12.83;94.17;100677.53;5018203;28;20203;-85
2022/10/14 06:10:21;;;;;;;41.53;23.40;;;;;;;12.83;94.44;100682.00;5018421;28;20227;-84
2022/10/14 06:12:49;;;;;;;35.53;20.93;;;;;;;12.84;94.36;100679.22;5010849;28;20208;-84
2022/10/14 06:15:16;;;;;;;36.23;20.80;;;;;;;12.86;94.38;100689.81;5011938;28;20206;-84
2022/10/14 06:17:43;;;;;;;34.87;21.60;;;;;;;12.85;94.90;100678.28;5010087;28;20230;-84
2022/10/14 06:20:10;;;;;;;36.33;22.07;;;;;;;12.88;94.49;100682.53;5021975;28;20226;-84
2022/10/14 06:22:37;;;;;;;32.90;19.83;;;;;;;12.88;94.76;100679.88;5009916;28;20206;-84
2022/10/14 06:25:04;;;;;;;33.20;19.80;;;;;;;12.89;94.94;100680.72;5015564;28;20211;-84
2022/10/14 06:27:31;;;;;;;34.80;20.67;;;;;;;12.92;94.71;100685.81;5014871;28;20294;-84
2022/10/14 06:29:59;;;;;;;32.53;20.87;;;;;;;12.91;94.73;100684.13;5015051;28;20222;-84
2022/10/14 06:32:26;;;;;;;32.37;20.27;;;;;;;12.90;95.09;100682.44;5014684;28;20278;-84
2022/10/14 06:34:53;;;;;;;33.37;21.43;;;;;;;12.94;94.93;100681.22;5019811;28;20213;-84
2022/10/14 06:37:19;;;;;;;34.83;22.23;;;;;;;12.94;94.84;100678.53;5020602;28;20697;-85
2022/10/14 06:39:46;;;;;;;33.70;21.20;;;;;;;12.96;95.20;100679.28;5027361;28;20225;-84
2022/10/14 06:42:13;;;;;;;33.23;20.77;;;;;;;12.98;95.04;100675.56;5021770;28;20214;-84
2022/10/14 06:44:40;;;;;;;32.27;20.97;;;;;;;12.99;95.12;100679.06;5019356;28;20211;-84
2022/10/14 06:47:08;;;;;;;34.40;21.00;;;;;;;12.99;95.19;100671.91;5021277;28;20198;-85
2022/10/14 06:49:35;;;;;;;36.63;21.80;;;;;;;13.01;94.77;100672.66;5017502;28;20230;-84
2022/10/14 06:52:01;;;;;;;33.23;22.00;;;;;;;13.03;94.83;100676.06;5012664;28;20269;-84
2022/10/14 06:54:28;;;;;;;30.93;19.93;;;;;;;13.04;94.83;100668.91;5019225;28;20214;-84
2022/10/14 06:56:55;;;;;;;31.67;20.27;;;;;;;13.05;94.67;100671.47;5026427;28;20570;-84
2022/10/14 06:59:22;;;;;;;32.00;20.37;;;;;;;13.07;95.17;100666.03;5027132;28;20317;-84
2022/10/14 07:01:48;;;;;;;32.17;19.60;;;;;;;13.09;95.27;100666.72;5016994;28;20210;-84
2022/10/14 07:04:17;;;;;;;32.03;20.30;;;;;;;13.08;94.98;100671.22;5013617;28;20290;-84
2022/10/14 07:06:43;;;;;;;31.90;20.43;;;;;;;13.09;95.00;100670.25;5012703;28;20243;-84
2022/10/14 07:09:10;;;;;;;30.97;20.23;;;;;;;13.14;94.67;100675.28;5014046;28;20720;-84
2022/10/14 07:11:37;;;;;;;32.40;20.67;;;;;;;13.15;94.66;100672.53;5025267;28;20234;-84
2022/10/14 07:14:04;;;;;;;28.57;19.47;;;;;;;13.17;94.92;100664.41;5024193;28;20205;-84
2022/10/14 07:16:32;;;;;;;29.20;19.60;;;;;;;13.19;94.88;100667.81;5019309;28;20293;-84
2022/10/14 07:19:01;;;;;;;51.50;21.87;;;;;;;13.20;94.87;100675.72;5018449;28;20312;-84
2022/10/14 07:21:29;;;;;;;39.23;19.90;;;;;;;13.25;94.68;100675.38;5017933;28;20573;-84
2022/10/14 07:23:56;;;;;;;28.30;17.80;;;;;;;13.27;94.79;100675.25;5016422;28;20294;-84
2022/10/14 07:26:23;;;;;;;44.03;18.73;;;;;;;13.30;95.06;100685.72;5014789;28;20211;-84
2022/10/14 07:28:50;;;;;;;42.33;18.00;;;;;;;13.31;94.73;100674.06;5014381;28;20254;-84
2022/10/14 07:31:16;;;;;;;28.97;17.27;;;;;;;13.33;94.57;100681.00;5021762;28;20285;-84
2022/10/14 07:33:43;;;;;;;33.07;17.90;;;;;;;13.35;94.91;100676.41;5028739;28;20214;-84
2022/10/14 07:36:12;;;;;;;27.83;15.70;;;;;;;13.39;94.87;100671.69;5020260;28;20213;-84
2022/10/14 07:38:41;;;;;;;18.20;13.97;;;;;;;13.42;94.93;100671.47;5014781;28;20237;-84
2022/10/14 07:41:15;;;;;;;17.03;12.60;;;;;;;13.41;94.36;100661.72;5012165;28;20218;-84
2022/10/14 07:43:42;;;;;;;17.80;13.17;;;;;;;13.45;94.86;100663.19;5020365;28;20823;-84
2022/10/14 07:46:11;;;;;;;17.27;13.73;;;;;;;13.50;94.28;100664.56;5014195;28;20203;-84
2022/10/14 07:48:38;;;;;;;16.67;12.30;;;;;;;13.54;94.38;100667.84;5018353;28;20226;-84
2022/10/14 07:51:06;;;;;;;16.43;12.50;;;;;;;13.58;94.13;100664.00;5019046;28;20207;-84
2022/10/14 07:53:32;;;;;;;15.33;11.13;;;;;;;13.65;94.32;100661.69;5021932;28;20211;-84
2022/10/14 07:56:01;;;;;;;13.23;10.83;;;;;;;13.69;94.40;100674.72;5020770;28;20299;-84
2022/10/14 07:58:30;;;;;;;11.97;10.00;;;;;;;13.74;93.82;100669.03;5021258;28;20270;-84
2022/10/14 08:00:59;;;;;;;11.87;9.57;;;;;;;13.77;93.65;100672.31;5031834;28;20212;-85
2022/10/14 08:03:26;;;;;;;10.27;9.17;;;;;;;13.81;93.12;100678.28;5021161;28;20203;-84
2022/10/14 08:05:59;;;;;;;9.17;8.07;;;;;;;13.84;93.31;100680.72;5009814;28;20220;-84
2022/10/14 08:08:27;;;;;;;9.23;7.70;;;;;;;13.89;93.03;100684.75;5013596;28;20227;-84
2022/10/14 08:11:02;;;;;;;9.43;7.23;;;;;;;13.90;92.38;100677.59;5013863;28;20203;-84
2022/10/14 08:13:29;;;;;;;10.47;8.33;;;;;;;13.93;92.24;100681.84;5020972;28;20212;-84
2022/10/14 08:15:56;;;;;;;10.13;7.60;;;;;;;13.99;92.17;100681.38;5013173;28;20206;-84
2022/10/14 08:18:24;;;;;;;8.83;7.50;;;;;;;14.04;91.43;100687.22;5015471;28;20321;-84
2022/10/14 08:20:52;;;;;;;8.67;7.27;;;;;;;14.04;91.33;100685.41;5017948;28;20207;-84
2022/10/14 08:23:18;;;;;;;7.63;6.83;;;;;;;14.10;91.00;100686.75;5019269;28;20586;-84
2022/10/14 08:25:48;;;;;;;7.80;6.87;;;;;;;14.14;90.73;100677.53;5014805;28;20209;-84
2022/10/14 08:28:16;;;;;;;7.43;6.53;;;;;;;14.18;90.67;100662.91;4995155;28;20576;-84
2022/10/14 08:30:43;;;;;;;7.73;6.20;;;;;;;14.21;89.82;100668.03;4992481;28;20217;-84
2022/10/14 08:33:11;;;;;;;6.80;5.97;;;;;;;14.22;89.97;100664.38;4998695;28;20294;-84
2022/10/14 08:35:38;;;;;;;6.43;5.70;;;;;;;14.24;89.38;100663.28;4995683;28;20211;-84
2022/10/14 08:38:05;;;;;;;6.73;6.03;;;;;;;14.25;89.18;100659.63;5005308;28;20234;-84
2022/10/14 08:40:49;;;;;;;6.20;4.97;;;;;;;14.25;88.69;100659.63;4995688;28;20295;-84
2022/10/14 08:43:23;;;;;;;5.80;5.07;;;;;;;14.26;88.08;100649.78;4999951;28;20200;-84
2022/10/14 08:45:55;;;;;;;5.63;4.83;;;;;;;14.29;87.86;100654.91;5000180;28;20213;-84
2022/10/14 08:48:26;;;;;;;5.53;4.80;;;;;;;14.34;87.78;100651.84;4990414;28;20260;-84
2022/10/14 08:50:58;;;;;;;5.43;4.87;;;;;;;14.37;87.27;100652.44;4998606;28;20240;-84
2022/10/14 08:53:30;;;;;;;4.93;4.50;;;;;;;14.42;86.46;100644.94;4998561;28;20205;-85
2022/10/14 08:56:00;;;;;;;6.07;4.63;;;;;;;14.47;86.20;100639.22;4997031;28;20612;-84
2022/10/14 08:58:33;;;;;;;5.90;4.77;;;;;;;14.54;86.10;100641.28;5005294;28;20271;-84
2022/10/14 09:01:03;;;;;;;5.37;4.13;;;;;;;14.66;86.41;100633.25;4990832;28;20227;-84
2022/10/14 09:03:32;;;;;;;4.40;3.90;;;;;;;14.83;86.52;100638.09;5000856;28;20210;-84
2022/10/14 09:06:02;;;;;;;3.90;3.53;;;;;;;15.00;86.36;100629.53;5002200;28;20627;-84
2022/10/14 09:08:34;;;;;;;4.53;3.73;;;;;;;15.18;85.45;100633.38;4996435;28;21113;-84
2022/10/14 09:11:01;;;;;;;4.10;3.50;;;;;;;15.31;84.18;100626.97;4994209;28;20201;-84
2022/10/14 09:13:34;;;;;;;3.67;2.80;;;;;;;15.44;83.40;100623.13;4995088;28;20742;-84
2022/10/14 09:16:06;;;;;;;6.00;3.13;;;;;;;15.53;81.68;100626.88;4996614;28;20586;-84
2022/10/14 09:18:36;;;;;;;3.10;2.80;;;;;;;15.54;80.89;100621.38;4977830;28;20240;-84
2022/10/14 09:21:14;;;;;;;2.57;2.37;;;;;;;15.56;80.34;100622.16;4991809;28;20208;-84
2022/10/14 09:23:41;;;;;;;3.27;2.97;;;;;;;15.57;79.81;100631.06;4998624;28;20582;-84
2022/10/14 09:26:16;;;;;;;3.53;2.77;;;;;;;15.59;79.00;100631.75;5007424;28;20203;-84
2022/10/14 09:28:45;;;;;;;2.77;2.43;;;;;;;15.60;78.96;100628.94;5000057;28;20232;-84
2022/10/14 09:31:14;;;;;;;3.13;2.47;;;;;;;15.62;78.47;100628.81;4997034;28;20226;-84
2022/10/14 09:33:42;;;;;;;3.30;3.00;;;;;;;15.65;78.46;100635.75;5001912;28;20213;-84
2022/10/14 09:36:15;;;;;;;2.70;2.50;;;;;;;15.65;78.15;100633.91;4996199;28;20213;-84
2022/10/14 09:38:42;;;;;;;2.93;2.40;;;;;;;15.67;77.89;100633.78;4999640;28;20259;-85
2022/10/14 09:41:13;;;;;;;2.33;2.00;;;;;;;15.67;77.59;100628.44;4995929;28;20209;-85
2022/10/14 09:43:59;;;;;;;2.40;1.90;;;;;;;15.70;77.40;100628.16;5004830;28;20200;-85
2022/10/14 09:46:27;;;;;;;2.43;1.93;;;;;;;15.71;77.27;100630.72;4989155;28;20213;-84
2022/10/14 09:48:55;;;;;;;2.50;1.90;;;;;;;15.75;76.81;100621.44;5004794;28;20219;-84
2022/10/14 09:51:25;;;;;;;2.23;2.00;;;;;;;15.78;76.32;100614.94;5003428;28;20209;-84
2022/10/14 09:53:54;;;;;;;2.20;2.00;;;;;;;15.83;76.49;100613.56;4998920;28;20861;-84
2022/10/14 09:56:29;;;;;;;2.27;2.07;;;;;;;15.98;77.01;100612.22;4995768;28;20217;-84
2022/10/14 09:58:57;;;;;;;2.43;2.00;;;;;;;16.08;76.40;100611.44;4999742;28;20228;-84
2022/10/14 10:01:27;;;;;;;3.17;2.00;;;;;;;16.18;75.94;100607.81;4991823;28;20201;-84
2022/10/14 10:03:55;;;;;;;2.77;2.57;;;;;;;16.29;76.08;100601.53;5007466;28;20203;-84
2022/10/14 10:06:27;;;;;;;3.10;2.67;;;;;;;16.38;75.38;100603.38;4995592;28;20588;-84
2022/10/14 10:08:57;;;;;;;2.80;2.60;;;;;;;16.43;74.36;100597.59;5005638;28;20222;-84
2022/10/14 10:11:28;;;;;;;3.27;2.47;;;;;;;16.44;74.17;100602.84;5001680;28;20638;-84
2022/10/14 10:13:55;;;;;;;2.67;2.40;;;;;;;16.45;73.91;100591.13;5001495;28;20212;-84
2022/10/14 10:16:24;;;;;;;3.00;2.27;;;;;;;16.49;73.51;100592.53;5011636;28;20213;-84
2022/10/14 10:18:54;;;;;;;2.50;2.30;;;;;;;16.51;73.64;100590.53;4996090;28;20302;-85
2022/10/14 10:21:24;;;;;;;3.37;1.87;;;;;;;16.56;73.51;100577.56;4989441;28;20301;-84
2022/10/14 10:23:54;;;;;;;2.90;1.90;;;;;;;16.60;72.41;100575.44;4993907;28;20297;-84
2022/10/14 10:26:25;;;;;;;3.17;2.10;;;;;;;16.63;72.13;100569.84;4998537;28;20196;-84
2022/10/14 10:28:53;;;;;;;2.03;1.80;;;;;;;16.64;72.25;100572.38;5011796;28;20233;-85
2022/10/14 10:31:49;;;;;;;1.80;1.60;;;;;;;16.66;71.83;100558.78;5001407;28;20262;-84
2022/10/14 10:34:45;;;;;;;2.57;2.13;;;;;;;16.67;71.61;100561.31;5003256;28;20203;-84
2022/10/14 10:37:29;;;;;;;1.80;1.70;;;;;;;16.71;71.26;100558.38;5008495;28;20204;-85
2022/10/14 10:40:08;;;;;;;2.47;2.27;;;;;;;16.73;71.14;100556.41;5016254;28;20601;-85
2022/10/14 10:42:43;;;;;;;2.50;2.30;;;;;;;16.75;71.27;100552.59;4987581;28;20565;-85
2022/10/14 10:45:15;;;;;;;2.83;1.90;;;;;;;16.78;71.49;100549.63;4993877;28;20569;-84
2022/10/14 10:47:48;;;;;;;2.83;2.27;;;;;;;16.85;71.76;100536.44;5003410;28;20202;-84
2022/10/14 10:50:40;;;;;;;2.30;2.10;;;;;;;16.90;71.74;100534.19;4989867;28;20207;-84
2022/10/14 10:53:29;;;;;;;2.20;2.00;;;;;;;16.94;71.49;100531.09;4989369;28;20223;-84
2022/10/14 10:56:11;;;;;;;2.20;2.00;;;;;;;16.95;71.15;100535.47;4994284;28;20208;-84
2022/10/14 10:58:43;;;;;;;2.27;1.80;;;;;;;17.01;71.21;100536.75;4990029;28;20245;-85
2022/10/14 11:01:20;;;;;;;2.10;1.90;;;;;;;17.05;71.16;100532.78;4999767;28;20318;-85
2022/10/14 11:04:02;;;;;;;2.87;2.37;;;;;;;17.07;70.65;100530.78;5000719;28;20205;-84
2022/10/14 11:12:22;;;;;;;1.80;1.20;;;;;;;17.13;70.34;100510.56;4994475;28;20210;-85
2022/10/14 11:15:06;;;;;;;2.50;1.10;;;;;;;17.15;70.26;100506.72;4990889;28;20208;-84
2022/10/14 11:17:38;;;;;;;1.50;1.00;;;;;;;17.19;69.04;100516.22;4995302;28;20675;-84
2022/10/14 11:20:16;;;;;;;0.97;0.80;;;;;;;17.15;69.22;100508.56;5000936;28;20232;-84
2022/10/14 11:22:57;;;;;;;1.80;1.13;;;;;;;17.12;69.29;100503.47;5001084;28;20216;-85
2022/10/14 11:25:37;;;;;;;1.10;1.00;;;;;;;17.13;69.25;100503.34;4993167;28;20207;-84
2022/10/14 11:28:14;;;;;;;2.57;0.90;;;;;;;17.13;69.31;100497.94;5005376;28;20222;-85
2022/10/14 11:30:48;;;;;;;2.53;1.60;;;;;;;17.16;69.33;100489.59;4998647;28;20704;-84